createdAt,value
2023-03-31T00:02:54.065Z,10.37
2023-03-31T00:06:38.942Z,9.37
2023-03-31T00:10:24.220Z,11.00
2023-03-31T00:14:12.108Z,11.17
2023-03-31T00:18:00.378Z,10.80
2023-03-31T00:21:44.068Z,12.70
2023-03-31T00:25:26.749Z,8.47
2023-03-31T00:29:10.697Z,8.07
2023-03-31T00:32:53.439Z,7.90
2023-03-31T00:36:45.872Z,11.40
2023-03-31T00:40:28.578Z,11.30
2023-03-31T00:44:14.725Z,13.50
2023-03-31T00:48:03.689Z,11.97
2023-03-31T00:51:50.001Z,10.90
2023-03-31T00:55:36.360Z,8.83
2023-03-31T00:59:19.268Z,14.83
2023-03-31T01:03:06.809Z,10.00
2023-03-31T01:06:57.341Z,9.40
2023-03-31T01:10:42.126Z,8.43
2023-03-31T01:14:24.880Z,11.30
2023-03-31T01:18:10.084Z,12.20
2023-03-31T01:22:20.820Z,8.20
2023-03-31T01:26:21.683Z,10.30
2023-03-31T01:30:28.666Z,8.33
2023-03-31T01:34:36.671Z,11.30
2023-03-31T01:38:36.980Z,8.67
2023-03-31T01:42:22.901Z,9.07
2023-03-31T01:46:14.276Z,10.60
2023-03-31T01:49:59.617Z,10.63
2023-03-31T01:53:46.567Z,11.17
2023-03-31T01:57:33.033Z,11.80
2023-03-31T02:01:19.812Z,10.50
2023-03-31T02:05:05.871Z,12.80
2023-03-31T02:08:52.487Z,11.87
2023-03-31T02:12:37.742Z,11.83
2023-03-31T02:16:24.567Z,8.73
2023-03-31T02:20:11.259Z,11.87
2023-03-31T02:23:54.000Z,11.33
2023-03-31T02:27:40.305Z,9.83
2023-03-31T02:31:29.529Z,10.47
2023-03-31T02:35:14.062Z,11.20
2023-03-31T02:39:01.297Z,8.30
2023-03-31T02:42:45.533Z,9.47
2023-03-31T02:46:28.841Z,8.73
2023-03-31T02:50:14.056Z,8.43
2023-03-31T02:54:16.873Z,7.47
2023-03-31T02:58:20.675Z,11.80
2023-03-31T03:02:13.997Z,9.33
2023-03-31T03:06:05.847Z,10.77
2023-03-31T03:09:59.411Z,8.57
2023-03-31T03:13:47.531Z,11.50
2023-03-31T03:17:32.689Z,10.83
2023-03-31T03:21:15.343Z,9.97
2023-03-31T03:24:58.058Z,10.50
2023-03-31T03:28:41.262Z,9.60
2023-03-31T03:32:25.734Z,9.70
2023-03-31T03:36:09.570Z,10.67
2023-03-31T03:39:52.469Z,11.20
2023-03-31T03:43:35.349Z,9.50
2023-03-31T03:47:18.001Z,12.50
2023-03-31T03:51:02.330Z,10.80
2023-03-31T03:54:44.966Z,11.97
2023-03-31T03:58:27.617Z,12.07
2023-03-31T04:02:10.354Z,10.70
2023-03-31T04:05:53.076Z,10.17
2023-03-31T04:09:38.647Z,9.73
2023-03-31T04:13:21.867Z,11.20
2023-03-31T04:17:04.516Z,10.67
2023-03-31T04:20:54.603Z,10.27
2023-03-31T04:24:38.946Z,11.53
2023-03-31T04:28:21.668Z,16.87
2023-03-31T04:32:06.851Z,10.40
2023-03-31T04:35:50.445Z,12.63
2023-03-31T04:39:33.208Z,10.77
2023-03-31T04:43:17.726Z,11.90
2023-03-31T04:47:03.057Z,14.37
2023-03-31T04:50:47.595Z,12.10
2023-03-31T04:54:30.279Z,11.87
2023-03-31T04:58:12.931Z,12.93
2023-03-31T05:01:57.047Z,11.40
2023-03-31T05:05:39.849Z,14.43
2023-03-31T05:09:22.753Z,12.47
2023-03-31T05:13:05.436Z,13.77
2023-03-31T05:16:48.130Z,13.30
2023-03-31T05:20:32.137Z,12.00
2023-03-31T05:24:14.868Z,10.90
2023-03-31T05:27:57.591Z,12.57
2023-03-31T05:31:40.579Z,13.33
2023-03-31T05:35:23.309Z,10.37
2023-03-31T05:39:08.035Z,16.10
2023-03-31T05:42:50.855Z,15.57
2023-03-31T05:46:35.271Z,15.13
2023-03-31T05:50:18.197Z,10.13
2023-03-31T05:54:00.881Z,12.33
2023-03-31T05:57:44.922Z,8.87
2023-03-31T06:01:27.826Z,10.97
2023-03-31T06:05:10.862Z,10.30
2023-03-31T06:08:53.523Z,10.43
2023-03-31T06:12:36.539Z,12.47
2023-03-31T06:16:22.604Z,9.83
2023-03-31T06:20:16.317Z,20.67
2023-03-31T06:24:07.476Z,14.47
2023-03-31T06:27:50.134Z,10.63
2023-03-31T06:31:34.227Z,12.93
2023-03-31T06:35:16.840Z,12.77
2023-03-31T06:38:59.486Z,12.20
2023-03-31T06:42:42.132Z,13.47
2023-03-31T06:46:24.850Z,11.80
2023-03-31T06:50:10.720Z,11.60
2023-03-31T06:53:53.402Z,13.00
2023-03-31T06:57:36.731Z,8.70
2023-03-31T07:01:19.401Z,10.00
2023-03-31T07:05:01.976Z,9.73
2023-03-31T07:08:46.004Z,9.47
2023-03-31T07:12:28.871Z,9.13
2023-03-31T07:16:14.085Z,10.07
2023-03-31T07:19:57.821Z,14.77
2023-03-31T07:23:40.611Z,11.63
2023-03-31T07:27:26.354Z,13.03
2023-03-31T07:31:13.039Z,10.47
2023-03-31T07:34:55.631Z,17.60
2023-03-31T07:38:38.321Z,10.53
2023-03-31T07:42:21.031Z,11.93
2023-03-31T07:46:06.148Z,12.73
2023-03-31T07:49:49.142Z,16.07
2023-03-31T07:53:32.424Z,10.33
2023-03-31T07:57:16.665Z,12.40
2023-03-31T08:00:59.394Z,14.63
2023-03-31T08:04:43.615Z,10.57
2023-03-31T08:08:26.348Z,14.03
2023-03-31T08:12:09.046Z,13.97
2023-03-31T08:15:51.728Z,12.87
2023-03-31T08:19:34.411Z,13.17
2023-03-31T08:23:18.410Z,9.93
2023-03-31T08:27:01.040Z,13.80
2023-03-31T08:30:43.753Z,9.33
2023-03-31T08:34:27.131Z,11.43
2023-03-31T08:38:09.724Z,10.33
2023-03-31T08:41:58.841Z,8.93
2023-03-31T08:45:44.266Z,9.80
2023-03-31T08:49:30.836Z,11.10
2023-03-31T08:53:21.724Z,8.43
2023-03-31T08:57:07.528Z,6.70
2023-03-31T09:00:53.461Z,6.33
2023-03-31T09:05:18.840Z,7.40
2023-03-31T09:09:03.744Z,8.17
2023-03-31T09:12:53.070Z,7.23
2023-03-31T09:16:39.386Z,6.70
2023-03-31T09:20:24.130Z,6.57
2023-03-31T09:24:12.111Z,10.20
2023-03-31T09:27:58.058Z,7.37
2023-03-31T09:31:42.942Z,6.03
2023-03-31T09:35:27.211Z,9.20
2023-03-31T09:39:13.997Z,6.83
2023-03-31T09:43:01.458Z,7.60
2023-03-31T09:46:44.296Z,5.27
2023-03-31T09:50:28.139Z,7.03
2023-03-31T09:54:16.628Z,7.20
2023-03-31T09:58:02.615Z,5.80
2023-03-31T10:01:46.750Z,9.43
2023-03-31T10:05:31.313Z,5.07
2023-03-31T10:09:14.321Z,5.37
2023-03-31T10:12:56.983Z,6.50
2023-03-31T10:16:49.331Z,6.27
2023-03-31T10:20:34.698Z,7.13
2023-03-31T10:24:19.749Z,8.67
2023-03-31T10:28:02.906Z,7.40
2023-03-31T10:31:47.046Z,6.00
2023-03-31T10:35:34.225Z,5.03
2023-03-31T10:39:17.545Z,6.70
2023-03-31T10:43:03.534Z,5.40
2023-03-31T10:46:50.008Z,7.13
2023-03-31T10:50:34.483Z,6.97
2023-03-31T10:54:17.181Z,6.87
2023-03-31T10:58:04.253Z,5.10
2023-03-31T11:02:00.617Z,5.67
2023-03-31T11:05:47.699Z,6.97
2023-03-31T11:09:40.966Z,9.70
2023-03-31T11:13:27.913Z,6.07
2023-03-31T11:17:22.042Z,7.40
2023-03-31T11:21:14.738Z,6.80
2023-03-31T11:25:09.309Z,6.87
2023-03-31T11:29:02.023Z,4.00
2023-03-31T11:33:00.677Z,2.33
2023-03-31T11:37:00.775Z,2.40
2023-03-31T11:40:53.145Z,3.20
2023-03-31T11:44:41.644Z,3.03
2023-03-31T11:48:36.254Z,2.23
2023-03-31T11:52:21.917Z,3.20
2023-03-31T11:56:08.391Z,5.67
2023-03-31T11:59:56.661Z,3.70
2023-03-31T12:03:47.389Z,3.10
2023-03-31T12:07:32.697Z,3.70
2023-03-31T12:11:21.578Z,5.73
2023-03-31T12:15:12.192Z,3.80
2023-03-31T12:19:04.089Z,3.77
2023-03-31T12:22:48.956Z,2.13
2023-03-31T12:26:40.731Z,4.57
2023-03-31T12:30:30.731Z,1.67
2023-03-31T12:34:16.248Z,4.40
2023-03-31T12:38:09.864Z,3.23
2023-03-31T12:42:04.795Z,5.00
2023-03-31T12:45:54.065Z,3.33
2023-03-31T12:49:52.404Z,4.03
2023-03-31T12:53:40.565Z,3.23
2023-03-31T12:57:24.368Z,3.03
2023-03-31T13:01:10.871Z,2.27
2023-03-31T13:04:55.150Z,3.60
2023-03-31T13:08:54.610Z,5.13
2023-03-31T13:12:37.297Z,3.43
2023-03-31T13:16:21.311Z,2.20
2023-03-31T13:20:26.320Z,4.37
2023-03-31T13:24:09.081Z,4.73
2023-03-31T13:27:53.639Z,3.67
2023-03-31T13:32:08.195Z,3.53
2023-03-31T13:35:57.445Z,2.50
2023-03-31T13:40:08.215Z,1.07
2023-03-31T13:44:16.421Z,1.73
2023-03-31T13:48:31.480Z,3.10
2023-03-31T13:52:22.241Z,3.83
2023-03-31T13:56:21.771Z,2.07
2023-03-31T14:00:30.933Z,4.17
2023-03-31T14:04:27.395Z,2.33
2023-03-31T14:08:14.643Z,3.87
2023-03-31T14:11:59.914Z,6.40
2023-03-31T14:15:46.588Z,2.33
2023-03-31T14:19:44.187Z,3.53
2023-03-31T14:23:49.555Z,3.47
2023-03-31T14:27:45.611Z,4.10
2023-03-31T14:31:35.058Z,3.03
2023-03-31T14:35:38.796Z,3.77
2023-03-31T14:39:24.363Z,3.53
2023-03-31T14:43:07.074Z,3.97
2023-03-31T14:46:49.760Z,2.23
2023-03-31T14:50:36.093Z,1.80
2023-03-31T14:54:20.231Z,3.67
2023-03-31T14:58:04.400Z,1.97
2023-03-31T15:01:47.808Z,2.47
2023-03-31T15:05:32.298Z,2.63
2023-03-31T15:09:19.482Z,1.00
2023-03-31T15:13:09.426Z,2.23
2023-03-31T15:16:52.304Z,1.20
2023-03-31T15:20:37.804Z,1.83
2023-03-31T15:24:21.117Z,2.30
2023-03-31T15:28:07.181Z,2.27
2023-03-31T15:31:50.258Z,3.80
2023-03-31T15:35:34.946Z,2.43
2023-03-31T15:39:17.660Z,3.10
2023-03-31T15:43:24.304Z,4.90
2023-03-31T15:47:13.955Z,5.83
2023-03-31T15:51:00.964Z,2.97
2023-03-31T15:54:44.302Z,2.57
2023-03-31T15:58:54.768Z,6.67
2023-03-31T16:02:41.645Z,3.43
2023-03-31T16:06:31.426Z,3.93
2023-03-31T16:10:18.396Z,1.80
2023-03-31T16:14:07.729Z,4.50
2023-03-31T16:17:52.128Z,5.00
2023-03-31T16:21:37.771Z,2.67
2023-03-31T16:25:23.173Z,4.70
2023-03-31T16:29:07.202Z,4.27
2023-03-31T16:33:03.774Z,2.63
2023-03-31T16:36:47.478Z,3.23
2023-03-31T16:40:32.684Z,3.17
2023-03-31T16:44:16.702Z,3.10
2023-03-31T16:48:02.226Z,4.67
2023-03-31T16:51:55.710Z,5.83
2023-03-31T16:55:38.346Z,3.40
2023-03-31T16:59:23.259Z,2.07
2023-03-31T17:03:06.087Z,1.20
2023-03-31T17:06:48.809Z,0.97
2023-03-31T17:10:31.739Z,1.00
2023-03-31T17:14:14.886Z,0.90
2023-03-31T17:17:59.412Z,1.20
2023-03-31T17:21:42.971Z,1.20
2023-03-31T17:25:25.574Z,2.77
2023-03-31T17:29:08.228Z,2.80
2023-03-31T17:32:52.189Z,2.00
2023-03-31T17:36:36.745Z,2.33
2023-03-31T17:40:19.461Z,3.83
2023-03-31T17:44:02.209Z,2.50
2023-03-31T17:47:46.162Z,2.60
2023-03-31T17:51:28.939Z,1.03
2023-03-31T17:55:14.444Z,2.63
2023-03-31T17:58:57.289Z,2.97
2023-03-31T18:02:40.838Z,1.97
2023-03-31T18:06:23.739Z,3.03
2023-03-31T18:10:07.719Z,1.53
2023-03-31T18:13:51.970Z,1.10
2023-03-31T18:17:35.004Z,1.30
2023-03-31T18:21:17.734Z,1.83
2023-03-31T18:25:00.379Z,2.97
2023-03-31T18:28:43.024Z,3.03
2023-03-31T18:32:27.477Z,4.27
2023-03-31T18:36:15.669Z,4.57
2023-03-31T18:39:58.334Z,2.17
2023-03-31T18:43:40.993Z,2.20
2023-03-31T18:47:24.534Z,1.43
2023-03-31T18:51:09.488Z,2.10
2023-03-31T18:54:52.904Z,2.53
2023-03-31T18:58:35.567Z,1.93
2023-03-31T19:02:18.346Z,0.80
2023-03-31T19:06:02.701Z,4.33
2023-03-31T19:09:46.778Z,1.83
2023-03-31T19:13:29.484Z,2.83
2023-03-31T19:17:12.392Z,2.03
2023-03-31T19:20:55.089Z,2.50
2023-03-31T19:24:37.982Z,32.83
2023-03-31T19:28:23.311Z,3.00
2023-03-31T19:32:07.103Z,3.33
2023-03-31T19:35:50.985Z,2.77
2023-03-31T19:39:33.726Z,3.47
2023-03-31T19:43:20.141Z,5.13
2023-03-31T19:47:04.374Z,3.37
2023-03-31T19:50:48.331Z,3.17
2023-03-31T19:54:31.044Z,1.57
2023-03-31T19:58:13.838Z,2.77
2023-03-31T20:01:57.882Z,3.20
2023-03-31T20:05:42.266Z,2.80
2023-03-31T20:09:25.262Z,3.27
2023-03-31T20:13:08.515Z,3.47
2023-03-31T20:16:52.791Z,4.07
2023-03-31T20:20:35.413Z,3.87
2023-03-31T20:24:20.578Z,3.20
2023-03-31T20:28:03.250Z,2.60
2023-03-31T20:31:46.019Z,4.17
2023-03-31T20:35:29.211Z,5.13
2023-03-31T20:39:14.082Z,4.00
2023-03-31T20:42:58.141Z,5.43
2023-03-31T20:46:41.039Z,5.10
2023-03-31T20:50:24.260Z,4.43
2023-03-31T20:54:08.285Z,4.10
2023-03-31T20:57:53.812Z,5.47
2023-03-31T21:01:38.260Z,4.43
2023-03-31T21:05:21.391Z,3.70
2023-03-31T21:09:04.456Z,2.53
2023-03-31T21:12:47.334Z,4.43
2023-03-31T21:16:30.051Z,4.40
2023-03-31T21:20:14.194Z,4.90
2023-03-31T21:23:56.846Z,7.27
2023-03-31T21:27:39.465Z,6.50
2023-03-31T21:31:24.005Z,3.33
2023-03-31T21:35:07.290Z,4.27
2023-03-31T21:38:53.342Z,3.90
2023-03-31T21:42:36.315Z,3.30
2023-03-31T21:46:20.466Z,1.50
2023-03-31T21:50:03.394Z,1.97
2023-03-31T21:53:46.063Z,3.63
2023-03-31T21:57:30.196Z,2.33
2023-03-31T22:01:13.573Z,2.27
2023-03-31T22:04:56.299Z,2.57
2023-03-31T22:08:39.808Z,2.80
2023-03-31T22:12:22.485Z,3.50
2023-03-31T22:16:11.522Z,2.40
2023-03-31T22:19:54.291Z,3.17
2023-03-31T22:23:37.413Z,3.97
2023-03-31T22:27:22.389Z,10.43
2023-03-31T22:31:06.565Z,2.10
2023-03-31T22:34:49.463Z,1.80
2023-03-31T22:38:32.178Z,2.17
2023-03-31T22:42:14.843Z,0.77
2023-03-31T22:45:57.514Z,1.97
2023-03-31T22:49:41.497Z,1.30
2023-03-31T22:53:24.144Z,2.70
2023-03-31T22:57:06.934Z,2.97
2023-03-31T23:00:56.200Z,3.27
2023-03-31T23:04:39.013Z,3.60
2023-03-31T23:08:23.287Z,1.53
2023-03-31T23:12:06.110Z,2.20
2023-03-31T23:15:48.763Z,1.80
2023-03-31T23:19:31.943Z,4.90
2023-03-31T23:23:14.627Z,1.73
2023-03-31T23:26:58.651Z,2.10
2023-03-31T23:30:41.593Z,1.63
2023-03-31T23:34:24.328Z,1.40
2023-03-31T23:38:07.272Z,1.07
2023-03-31T23:41:50.112Z,1.90
2023-03-31T23:45:34.375Z,1.73
2023-03-31T23:49:17.112Z,1.03
2023-03-31T23:52:59.796Z,0.97
2023-03-31T23:56:42.507Z,0.60
